sensor_id;sensor_type;location;lat;lon;timestamp;pressure;altitude;pressure_sealevel;temperature;humidity
34031;BME280;20319;28.466;-16.274;2024-01-30T00:00:32;96237.50;;;15.06;44.22
34031;BME280;20319;28.466;-16.274;2024-01-30T00:02:57;96234.53;;;15.08;44.11
34031;BME280;20319;28.466;-16.274;2024-01-30T00:05:23;96162.50;;;14.63;43.89
34031;BME280;20319;28.466;-16.274;2024-01-30T00:07:48;96250.44;;;15.14;43.89
34031;BME280;20319;28.466;-16.274;2024-01-30T00:10:14;96231.53;;;14.99;43.62
34031;BME280;20319;28.466;-16.274;2024-01-30T00:12:40;96204.53;;;14.84;43.55
34031;BME280;20319;28.466;-16.274;2024-01-30T00:15:05;96137.38;;;14.47;43.29
34031;BME280;20319;28.466;-16.274;2024-01-30T00:17:35;96163.53;;;14.57;43.37
34031;BME280;20319;28.466;-16.274;2024-01-30T00:20:01;96249.34;;;15.05;42.99
34031;BME280;20319;28.466;-16.274;2024-01-30T00:22:31;96042.44;;;13.85;43.07
34031;BME280;20319;28.466;-16.274;2024-01-30T00:24:56;96260.16;;;15.15;43.00
34031;BME280;20319;28.466;-16.274;2024-01-30T00:27:22;96246.09;;;15.08;42.91
34031;BME280;20319;28.466;-16.274;2024-01-30T00:29:48;96157.34;;;14.51;42.98
34031;BME280;20319;28.466;-16.274;2024-01-30T00:32:13;96152.50;;;14.48;42.82
34031;BME280;20319;28.466;-16.274;2024-01-30T00:34:39;96166.25;;;14.62;42.70
34031;BME280;20319;28.466;-16.274;2024-01-30T00:37:04;96248.81;;;15.13;42.47
34031;BME280;20319;28.466;-16.274;2024-01-30T00:39:30;96194.84;;;14.83;42.46
34031;BME280;20319;28.466;-16.274;2024-01-30T00:41:55;96250.44;;;15.14;42.46
34031;BME280;20319;28.466;-16.274;2024-01-30T00:44:21;96101.22;;;14.23;42.35
34031;BME280;20319;28.466;-16.274;2024-01-30T00:46:47;96167.59;;;14.64;42.64
34031;BME280;20319;28.466;-16.274;2024-01-30T00:49:12;96239.38;;;15.01;42.38
34031;BME280;20319;28.466;-16.274;2024-01-30T00:51:38;96238.28;;;15.02;42.44
34031;BME280;20319;28.466;-16.274;2024-01-30T00:54:03;96164.34;;;14.52;42.32
34031;BME280;20319;28.466;-16.274;2024-01-30T00:56:29;96248.53;;;15.10;42.25
34031;BME280;20319;28.466;-16.274;2024-01-30T00:58:55;96167.31;;;14.61;42.08
34031;BME280;20319;28.466;-16.274;2024-01-30T01:01:21;96129.84;;;14.34;42.30
34031;BME280;20319;28.466;-16.274;2024-01-30T01:03:46;96201.88;;;14.79;42.27
34031;BME280;20319;28.466;-16.274;2024-01-30T01:06:13;96252.03;;;15.05;42.29
34031;BME280;20319;28.466;-16.274;2024-01-30T01:08:39;96239.91;;;14.98;42.25
34031;BME280;20319;28.466;-16.274;2024-01-30T01:11:05;96231.81;;;15.03;42.13
34031;BME280;20319;28.466;-16.274;2024-01-30T01:13:31;96233.41;;;14.99;42.20
34031;BME280;20319;28.466;-16.274;2024-01-30T01:15:56;96230.75;;;14.89;42.13
34031;BME280;20319;28.466;-16.274;2024-01-30T01:18:22;96151.13;;;14.46;42.14
34031;BME280;20319;28.466;-16.274;2024-01-30T01:20:47;96234.22;;;14.89;42.19
34031;BME280;20319;28.466;-16.274;2024-01-30T01:23:13;96234.22;;;14.94;42.08
34031;BME280;20319;28.466;-16.274;2024-01-30T01:25:38;96204.56;;;14.79;41.85
34031;BME280;20319;28.466;-16.274;2024-01-30T01:28:04;96222.63;;;14.83;41.91
34031;BME280;20319;28.466;-16.274;2024-01-30T01:30:30;96108.75;;;14.16;42.00
34031;BME280;20319;28.466;-16.274;2024-01-30T01:32:56;96249.06;;;14.92;41.92
34031;BME280;20319;28.466;-16.274;2024-01-30T01:35:23;96116.56;;;14.18;41.89
34031;BME280;20319;28.466;-16.274;2024-01-30T01:37:54;95998.44;;;13.45;41.74
34031;BME280;20319;28.466;-16.274;2024-01-30T01:40:23;96218.06;;;14.79;41.88
34031;BME280;20319;28.466;-16.274;2024-01-30T01:42:50;96185.66;;;14.59;41.86
34031;BME280;20319;28.466;-16.274;2024-01-30T01:45:18;96146.53;;;14.26;41.90
34031;BME280;20319;28.466;-16.274;2024-01-30T01:47:44;96222.88;;;14.72;41.97
34031;BME280;20319;28.466;-16.274;2024-01-30T01:50:12;96223.16;;;14.75;41.94
34031;BME280;20319;28.466;-16.274;2024-01-30T01:52:40;96108.72;;;14.06;41.96
34031;BME280;20319;28.466;-16.274;2024-01-30T01:55:07;96210.75;;;14.69;42.15
34031;BME280;20319;28.466;-16.274;2024-01-30T01:57:33;96229.63;;;14.79;42.14
34031;BME280;20319;28.466;-16.274;2024-01-30T02:00:01;96113.03;;;14.07;42.10
34031;BME280;20319;28.466;-16.274;2024-01-30T02:02:30;96227.19;;;14.78;42.42
34031;BME280;20319;28.466;-16.274;2024-01-30T02:04:57;96213.19;;;14.71;42.49
34031;BME280;20319;28.466;-16.274;2024-01-30T02:07:24;96239.59;;;14.74;42.54
34031;BME280;20319;28.466;-16.274;2024-01-30T02:09:49;96185.88;;;14.47;42.86
34031;BME280;20319;28.466;-16.274;2024-01-30T02:12:15;96225.56;;;14.72;42.93
34031;BME280;20319;28.466;-16.274;2024-01-30T02:14:47;96221.28;;;14.71;42.82
34031;BME280;20319;28.466;-16.274;2024-01-30T02:17:14;96196.66;;;14.47;42.89
34031;BME280;20319;28.466;-16.274;2024-01-30T02:19:40;96142.97;;;14.21;42.81
34031;BME280;20319;28.466;-16.274;2024-01-30T02:22:05;96208.59;;;14.61;42.78
34031;BME280;20319;28.466;-16.274;2024-01-30T02:24:31;96181.03;;;14.44;42.81
34031;BME280;20319;28.466;-16.274;2024-01-30T02:26:57;96203.19;;;14.56;42.73
34031;BME280;20319;28.466;-16.274;2024-01-30T02:29:23;96088.97;;;13.81;42.90
34031;BME280;20319;28.466;-16.274;2024-01-30T02:31:48;96229.06;;;14.67;42.86
34031;BME280;20319;28.466;-16.274;2024-01-30T02:34:14;96233.09;;;14.65;42.78
34031;BME280;20319;28.466;-16.274;2024-01-30T02:36:43;96209.38;;;14.52;42.68
34031;BME280;20319;28.466;-16.274;2024-01-30T02:39:09;96220.16;;;14.62;42.95
34031;BME280;20319;28.466;-16.274;2024-01-30T02:41:35;96219.09;;;14.63;42.98
34031;BME280;20319;28.466;-16.274;2024-01-30T02:44:01;96098.44;;;13.83;43.12
34031;BME280;20319;28.466;-16.274;2024-01-30T02:46:27;96234.16;;;14.59;43.54
34031;BME280;20319;28.466;-16.274;2024-01-30T02:48:53;96120.56;;;14.05;43.56
34031;BME280;20319;28.466;-16.274;2024-01-30T02:51:18;96192.63;;;14.40;43.56
34031;BME280;20319;28.466;-16.274;2024-01-30T02:53:44;96208.84;;;14.55;43.68
34031;BME280;20319;28.466;-16.274;2024-01-30T02:56:09;96193.72;;;14.49;43.78
34031;BME280;20319;28.466;-16.274;2024-01-30T02:58:39;96217.72;;;14.60;43.84
34031;BME280;20319;28.466;-16.274;2024-01-30T03:01:05;96215.31;;;14.59;43.85
34031;BME280;20319;28.466;-16.274;2024-01-30T03:03:30;96121.63;;;13.94;44.15
34031;BME280;20319;28.466;-16.274;2024-01-30T03:05:56;96021.56;;;13.35;44.08
34031;BME280;20319;28.466;-16.274;2024-01-30T03:08:21;96186.16;;;14.41;43.90
34031;BME280;20319;28.466;-16.274;2024-01-30T03:10:47;96187.22;;;14.35;44.32
34031;BME280;20319;28.466;-16.274;2024-01-30T03:13:13;96189.91;;;14.40;44.00
34031;BME280;20319;28.466;-16.274;2024-01-30T03:15:38;96210.94;;;14.43;44.47
34031;BME280;20319;28.466;-16.274;2024-01-30T03:18:04;96101.38;;;13.77;44.56
34031;BME280;20319;28.466;-16.274;2024-01-30T03:20:30;96197.44;;;14.38;44.62
34031;BME280;20319;28.466;-16.274;2024-01-30T03:22:57;96095.44;;;13.75;44.88
34031;BME280;20319;28.466;-16.274;2024-01-30T03:25:25;96120.25;;;13.92;44.79
34031;BME280;20319;28.466;-16.274;2024-01-30T03:27:51;96221.22;;;14.56;45.08
34031;BME280;20319;28.466;-16.274;2024-01-30T03:30:16;96212.59;;;14.44;45.15
34031;BME280;20319;28.466;-16.274;2024-01-30T03:32:43;96088.44;;;13.74;45.17
34031;BME280;20319;28.466;-16.274;2024-01-30T03:35:09;96212.59;;;14.49;45.32
34031;BME280;20319;28.466;-16.274;2024-01-30T03:37:35;96120.81;;;13.94;45.33
34031;BME280;20319;28.466;-16.274;2024-01-30T03:40:01;96110.00;;;13.89;45.56
34031;BME280;20319;28.466;-16.274;2024-01-30T03:42:26;96212.84;;;14.47;45.45
34031;BME280;20319;28.466;-16.274;2024-01-30T03:44:52;96222.59;;;14.53;45.35
34031;BME280;20319;28.466;-16.274;2024-01-30T03:47:19;96100.84;;;13.85;45.46
34031;BME280;20319;28.466;-16.274;2024-01-30T03:49:46;96186.16;;;14.51;45.70
34031;BME280;20319;28.466;-16.274;2024-01-30T03:52:12;96224.22;;;14.64;45.75
34031;BME280;20319;28.466;-16.274;2024-01-30T03:54:38;96229.34;;;14.61;45.90
34031;BME280;20319;28.466;-16.274;2024-01-30T03:57:04;96182.97;;;14.49;45.77
34031;BME280;20319;28.466;-16.274;2024-01-30T03:59:29;96174.03;;;14.43;45.83
34031;BME280;20319;28.466;-16.274;2024-01-30T04:01:56;96217.19;;;14.68;45.95
34031;BME280;20319;28.466;-16.274;2024-01-30T04:04:21;96175.94;;;14.48;45.58
34031;BME280;20319;28.466;-16.274;2024-01-30T04:06:48;96148.97;;;14.33;45.79
34031;BME280;20319;28.466;-16.274;2024-01-30T04:09:14;96182.41;;;14.52;45.86
34031;BME280;20319;28.466;-16.274;2024-01-30T04:11:40;96165.69;;;14.45;45.77
34031;BME280;20319;28.466;-16.274;2024-01-30T04:14:07;96092.28;;;13.98;46.05
34031;BME280;20319;28.466;-16.274;2024-01-30T04:16:32;96157.84;;;14.38;45.81
34031;BME280;20319;28.466;-16.274;2024-01-30T04:18:58;96139.22;;;14.22;45.78
34031;BME280;20319;28.466;-16.274;2024-01-30T04:21:24;96067.47;;;13.76;45.85
34031;BME280;20319;28.466;-16.274;2024-01-30T04:23:51;96188.88;;;14.56;45.81
34031;BME280;20319;28.466;-16.274;2024-01-30T04:26:16;96170.50;;;14.38;45.95
34031;BME280;20319;28.466;-16.274;2024-01-30T04:28:44;96201.56;;;14.60;45.84
34031;BME280;20319;28.466;-16.274;2024-01-30T04:31:09;96184.59;;;14.60;45.85
34031;BME280;20319;28.466;-16.274;2024-01-30T04:33:35;96199.69;;;14.61;45.68
34031;BME280;20319;28.466;-16.274;2024-01-30T04:36:01;96199.13;;;14.59;45.71
34031;BME280;20319;28.466;-16.274;2024-01-30T04:38:26;96188.63;;;14.62;45.78
34031;BME280;20319;28.466;-16.274;2024-01-30T04:40:52;96186.75;;;14.58;45.90
34031;BME280;20319;28.466;-16.274;2024-01-30T04:43:18;96195.38;;;14.60;45.98
34031;BME280;20319;28.466;-16.274;2024-01-30T04:45:44;96165.69;;;14.45;46.29
34031;BME280;20319;28.466;-16.274;2024-01-30T04:48:10;96135.75;;;14.26;46.45
34031;BME280;20319;28.466;-16.274;2024-01-30T04:50:35;96084.72;;;13.85;46.19
34031;BME280;20319;28.466;-16.274;2024-01-30T04:53:01;95955.28;;;13.04;46.22
34031;BME280;20319;28.466;-16.274;2024-01-30T04:55:27;96206.94;;;14.50;46.52
34031;BME280;20319;28.466;-16.274;2024-01-30T04:57:52;96179.44;;;14.43;46.55
34031;BME280;20319;28.466;-16.274;2024-01-30T05:00:18;96199.66;;;14.51;46.62
34031;BME280;20319;28.466;-16.274;2024-01-30T05:02:44;96113.81;;;13.93;46.71
34031;BME280;20319;28.466;-16.274;2024-01-30T05:05:09;96086.31;;;13.76;46.67
34031;BME280;20319;28.466;-16.274;2024-01-30T05:07:36;95983.81;;;13.10;46.77
34031;BME280;20319;28.466;-16.274;2024-01-30T05:10:02;96066.88;;;13.64;46.65
34031;BME280;20319;28.466;-16.274;2024-01-30T05:12:28;96187.75;;;14.37;46.88
34031;BME280;20319;28.466;-16.274;2024-01-30T05:14:54;96214.47;;;14.48;46.90
34031;BME280;20319;28.466;-16.274;2024-01-30T05:17:20;96206.94;;;14.45;46.84
34031;BME280;20319;28.466;-16.274;2024-01-30T05:19:45;96076.03;;;13.68;46.83
34031;BME280;20319;28.466;-16.274;2024-01-30T05:22:11;96151.03;;;14.16;46.80
34031;BME280;20319;28.466;-16.274;2024-01-30T05:24:41;96179.13;;;14.30;47.10
34031;BME280;20319;28.466;-16.274;2024-01-30T05:27:07;96144.59;;;14.17;46.83
34031;BME280;20319;28.466;-16.274;2024-01-30T05:29:33;96180.50;;;14.37;46.94
34031;BME280;20319;28.466;-16.274;2024-01-30T05:31:59;96060.94;;;13.67;46.91
34031;BME280;20319;28.466;-16.274;2024-01-30T05:34:24;96182.41;;;14.47;46.84
34031;BME280;20319;28.466;-16.274;2024-01-30T05:36:50;96085.78;;;13.89;46.68
34031;BME280;20319;28.466;-16.274;2024-01-30T05:39:15;96181.59;;;14.46;46.95
34031;BME280;20319;28.466;-16.274;2024-01-30T05:41:41;96088.22;;;13.85;46.78
34031;BME280;20319;28.466;-16.274;2024-01-30T05:44:06;96174.28;;;14.32;46.71
34031;BME280;20319;28.466;-16.274;2024-01-30T05:46:33;96157.03;;;14.28;46.58
34031;BME280;20319;28.466;-16.274;2024-01-30T05:48:59;96046.97;;;13.65;46.68
34031;BME280;20319;28.466;-16.274;2024-01-30T05:51:24;96176.97;;;14.32;46.42
34031;BME280;20319;28.466;-16.274;2024-01-30T05:53:50;96083.34;;;13.82;46.51
34031;BME280;20319;28.466;-16.274;2024-01-30T05:56:15;96170.78;;;14.31;46.50
34031;BME280;20319;28.466;-16.274;2024-01-30T05:58:41;96168.09;;;14.31;46.44
34031;BME280;20319;28.466;-16.274;2024-01-30T06:01:08;96173.47;;;14.31;46.51
34031;BME280;20319;28.466;-16.274;2024-01-30T06:03:34;96167.81;;;14.33;46.82
34031;BME280;20319;28.466;-16.274;2024-01-30T06:06:00;96146.22;;;14.23;46.51
34031;BME280;20319;28.466;-16.274;2024-01-30T06:08:25;96069.56;;;13.69;46.65
34031;BME280;20319;28.466;-16.274;2024-01-30T06:10:51;96166.66;;;14.19;46.68
34031;BME280;20319;28.466;-16.274;2024-01-30T06:13:16;96078.19;;;13.66;46.51
34031;BME280;20319;28.466;-16.274;2024-01-30T06:15:42;96153.19;;;14.14;46.45
34031;BME280;20319;28.466;-16.274;2024-01-30T06:18:08;96160.75;;;14.22;46.67
34031;BME280;20319;28.466;-16.274;2024-01-30T06:20:34;96150.78;;;14.12;46.86
34031;BME280;20319;28.466;-16.274;2024-01-30T06:22:59;96155.88;;;14.19;46.98
34031;BME280;20319;28.466;-16.274;2024-01-30T06:25:25;96048.53;;;13.56;46.78
34031;BME280;20319;28.466;-16.274;2024-01-30T06:27:51;96040.97;;;13.48;46.90
34031;BME280;20319;28.466;-16.274;2024-01-30T06:30:16;96135.66;;;14.06;46.42
34031;BME280;20319;28.466;-16.274;2024-01-30T06:32:42;96168.03;;;14.21;46.25
34031;BME280;20319;28.466;-16.274;2024-01-30T06:35:08;96169.13;;;14.20;46.42
34031;BME280;20319;28.466;-16.274;2024-01-30T06:37:34;96173.94;;;14.18;46.16
34031;BME280;20319;28.466;-16.274;2024-01-30T06:39:59;96046.84;;;13.39;46.26
34031;BME280;20319;28.466;-16.274;2024-01-30T06:42:25;96090.28;;;13.68;45.93
34031;BME280;20319;28.466;-16.274;2024-01-30T06:44:50;96180.66;;;14.16;46.04
34031;BME280;20319;28.466;-16.274;2024-01-30T06:47:16;96151.00;;;14.01;45.75
34031;BME280;20319;28.466;-16.274;2024-01-30T06:49:41;96172.84;;;14.14;45.65
34031;BME280;20319;28.466;-16.274;2024-01-30T06:52:09;96030.63;;;13.19;45.64
34031;BME280;20319;28.466;-16.274;2024-01-30T06:54:34;96171.50;;;14.12;45.61
34031;BME280;20319;28.466;-16.274;2024-01-30T06:57:00;96021.47;;;13.10;45.34
34031;BME280;20319;28.466;-16.274;2024-01-30T06:59:26;96162.00;;;13.89;45.44
34031;BME280;20319;28.466;-16.274;2024-01-30T07:01:51;96161.44;;;13.87;45.52
34031;BME280;20319;28.466;-16.274;2024-01-30T07:04:17;96176.50;;;13.83;45.33
34031;BME280;20319;28.466;-16.274;2024-01-30T07:06:43;96124.97;;;13.55;45.27
34031;BME280;20319;28.466;-16.274;2024-01-30T07:09:09;96097.94;;;13.29;44.82
34031;BME280;20319;28.466;-16.274;2024-01-30T07:11:35;96062.06;;;13.09;45.27
34031;BME280;20319;28.466;-16.274;2024-01-30T07:14:01;96190.78;;;13.84;45.45
34031;BME280;20319;28.466;-16.274;2024-01-30T07:16:29;96195.66;;;13.87;45.27
34031;BME280;20319;28.466;-16.274;2024-01-30T07:18:54;96157.59;;;13.68;45.38
34031;BME280;20319;28.466;-16.274;2024-01-30T07:21:21;96203.16;;;13.85;45.55
34031;BME280;20319;28.466;-16.274;2024-01-30T07:23:50;96193.44;;;13.79;45.40
34031;BME280;20319;28.466;-16.274;2024-01-30T07:26:16;96201.53;;;13.79;45.69
34031;BME280;20319;28.466;-16.274;2024-01-30T07:28:41;96217.94;;;13.82;45.62
34031;BME280;20319;28.466;-16.274;2024-01-30T07:31:07;96098.63;;;13.10;45.67
34031;BME280;20319;28.466;-16.274;2024-01-30T07:33:32;96163.94;;;13.47;45.94
34031;BME280;20319;28.466;-16.274;2024-01-30T07:35:58;96133.69;;;13.30;46.24
34031;BME280;20319;28.466;-16.274;2024-01-30T07:38:23;96176.38;;;13.58;45.99
34031;BME280;20319;28.466;-16.274;2024-01-30T07:40:49;96206.59;;;13.70;46.01
34031;BME280;20319;28.466;-16.274;2024-01-30T07:43:15;96216.53;;;13.70;46.21
34031;BME280;20319;28.466;-16.274;2024-01-30T07:45:40;96100.19;;;13.01;46.04
34031;BME280;20319;28.466;-16.274;2024-01-30T07:48:06;96200.88;;;13.57;46.34
34031;BME280;20319;28.466;-16.274;2024-01-30T07:50:32;96223.31;;;13.77;46.25
34031;BME280;20319;28.466;-16.274;2024-01-30T07:52:59;96126.09;;;13.17;46.17
34031;BME280;20319;28.466;-16.274;2024-01-30T07:55:25;96219.53;;;13.73;46.12
34031;BME280;20319;28.466;-16.274;2024-01-30T07:57:54;96077.19;;;12.88;46.38
34031;BME280;20319;28.466;-16.274;2024-01-30T08:00:20;96215.78;;;13.74;46.42
34031;BME280;20319;28.466;-16.274;2024-01-30T08:02:46;96213.63;;;13.76;46.61
34031;BME280;20319;28.466;-16.274;2024-01-30T08:05:12;96074.53;;;12.88;46.49
34031;BME280;20319;28.466;-16.274;2024-01-30T08:07:39;96204.72;;;13.71;46.39
34031;BME280;20319;28.466;-16.274;2024-01-30T08:10:06;96183.94;;;13.61;46.42
34031;BME280;20319;28.466;-16.274;2024-01-30T08:12:31;96221.97;;;13.80;46.15
34031;BME280;20319;28.466;-16.274;2024-01-30T08:14:57;96083.19;;;12.95;46.32
34031;BME280;20319;28.466;-16.274;2024-01-30T08:17:22;96237.63;;;13.83;46.25
34031;BME280;20319;28.466;-16.274;2024-01-30T08:19:48;96000.38;;;12.51;46.10
34031;BME280;20319;28.466;-16.274;2024-01-30T08:22:14;96220.97;;;13.91;45.81
34031;BME280;20319;28.466;-16.274;2024-01-30T08:24:41;96221.25;;;13.94;45.91
34031;BME280;20319;28.466;-16.274;2024-01-30T08:27:07;96179.66;;;13.70;45.86
34031;BME280;20319;28.466;-16.274;2024-01-30T08:29:35;96126.00;;;13.44;45.69
34031;BME280;20319;28.466;-16.274;2024-01-30T08:32:01;96208.31;;;13.91;45.60
34031;BME280;20319;28.466;-16.274;2024-01-30T08:34:26;96212.91;;;13.96;45.92
34031;BME280;20319;28.466;-16.274;2024-01-30T08:36:52;96190.03;;;13.93;45.72
34031;BME280;20319;28.466;-16.274;2024-01-30T08:39:18;96201.09;;;14.02;45.75
34031;BME280;20319;28.466;-16.274;2024-01-30T08:41:44;96182.72;;;13.94;46.04
34031;BME280;20319;28.466;-16.274;2024-01-30T08:44:10;96172.50;;;13.91;45.90
34031;BME280;20319;28.466;-16.274;2024-01-30T08:46:36;96188.72;;;14.06;46.26
34031;BME280;20319;28.466;-16.274;2024-01-30T08:49:02;96234.25;;;14.17;46.05
34031;BME280;20319;28.466;-16.274;2024-01-30T08:51:30;96231.41;;;14.34;46.62
34031;BME280;20319;28.466;-16.274;2024-01-30T08:53:55;96224.91;;;14.25;46.23
34031;BME280;20319;28.466;-16.274;2024-01-30T08:56:21;96230.38;;;14.45;46.17
34031;BME280;20319;28.466;-16.274;2024-01-30T08:58:47;96159.34;;;13.99;46.14
34031;BME280;20319;28.466;-16.274;2024-01-30T09:01:13;96228.78;;;14.49;46.42
34031;BME280;20319;28.466;-16.274;2024-01-30T09:03:39;96244.69;;;14.60;46.38
34031;BME280;20319;28.466;-16.274;2024-01-30T09:06:12;96211.75;;;14.43;46.65
34031;BME280;20319;28.466;-16.274;2024-01-30T09:08:38;96208.00;;;14.49;46.71
34031;BME280;20319;28.466;-16.274;2024-01-30T09:11:14;96142.13;;;14.10;46.75
34031;BME280;20319;28.466;-16.274;2024-01-30T09:13:40;96214.25;;;14.60;46.83
34031;BME280;20319;28.466;-16.274;2024-01-30T09:16:06;96131.66;;;14.14;46.90
34031;BME280;20319;28.466;-16.274;2024-01-30T09:18:32;96239.63;;;14.89;46.79
34031;BME280;20319;28.466;-16.274;2024-01-30T09:20:58;96247.44;;;14.96;46.84
34031;BME280;20319;28.466;-16.274;2024-01-30T09:23:24;96242.34;;;14.99;46.97
34031;BME280;20319;28.466;-16.274;2024-01-30T09:25:50;96127.97;;;14.45;46.94
34031;BME280;20319;28.466;-16.274;2024-01-30T19:54:29;96152.59;;;15.87;49.13
34031;BME280;20319;28.466;-16.274;2024-01-30T19:56:55;96131.06;;;15.77;48.32
34031;BME280;20319;28.466;-16.274;2024-01-30T19:59:21;96147.19;;;15.97;47.54
34031;BME280;20319;28.466;-16.274;2024-01-30T20:01:47;96039.66;;;15.36;46.96
34031;BME280;20319;28.466;-16.274;2024-01-30T20:04:12;96119.13;;;15.88;46.43
34031;BME280;20319;28.466;-16.274;2024-01-30T20:06:39;96133.38;;;15.99;46.17
34031;BME280;20319;28.466;-16.274;2024-01-30T20:09:05;96141.44;;;16.09;45.58
34031;BME280;20319;28.466;-16.274;2024-01-30T20:11:32;96156.22;;;16.26;45.13
34031;BME280;20319;28.466;-16.274;2024-01-30T20:13:57;96097.53;;;15.88;44.90
34031;BME280;20319;28.466;-16.274;2024-01-30T20:16:23;96162.97;;;16.29;44.69
34031;BME280;20319;28.466;-16.274;2024-01-30T20:18:48;96150.00;;;16.26;44.35
34031;BME280;20319;28.466;-16.274;2024-01-30T20:21:14;96167.53;;;16.33;43.99
34031;BME280;20319;28.466;-16.274;2024-01-30T20:23:39;96075.47;;;15.71;43.67
34031;BME280;20319;28.466;-16.274;2024-01-30T20:26:05;96066.56;;;15.66;43.23
34031;BME280;20319;28.466;-16.274;2024-01-30T20:28:31;96157.38;;;16.15;43.33
34031;BME280;20319;28.466;-16.274;2024-01-30T20:30:57;96078.94;;;15.77;42.61
34031;BME280;20319;28.466;-16.274;2024-01-30T20:33:23;96171.88;;;16.29;42.71
34031;BME280;20319;28.466;-16.274;2024-01-30T20:35:50;96190.22;;;16.38;42.20
34031;BME280;20319;28.466;-16.274;2024-01-30T20:38:16;96189.41;;;16.37;41.86
34031;BME280;20319;28.466;-16.274;2024-01-30T20:40:41;96187.53;;;16.33;41.56
34031;BME280;20319;28.466;-16.274;2024-01-30T20:43:08;96189.97;;;16.34;41.60
34031;BME280;20319;28.466;-16.274;2024-01-30T20:45:33;96188.63;;;16.37;41.65
34031;BME280;20319;28.466;-16.274;2024-01-30T20:47:59;96194.03;;;16.37;41.55
34031;BME280;20319;28.466;-16.274;2024-01-30T20:50:26;96188.66;;;16.26;41.60
34031;BME280;20319;28.466;-16.274;2024-01-30T20:52:51;96075.78;;;15.55;41.47
34031;BME280;20319;28.466;-16.274;2024-01-30T20:55:17;96208.06;;;16.33;40.98
34031;BME280;20319;28.466;-16.274;2024-01-30T20:57:43;96104.63;;;15.64;40.69
34031;BME280;20319;28.466;-16.274;2024-01-30T21:00:09;96213.53;;;16.28;40.67
34031;BME280;20319;28.466;-16.274;2024-01-30T21:02:35;96198.75;;;16.11;40.21
34031;BME280;20319;28.466;-16.274;2024-01-30T21:05:03;96214.63;;;16.22;40.32
34031;BME280;20319;28.466;-16.274;2024-01-30T21:07:29;96213.25;;;16.25;40.86
34031;BME280;20319;28.466;-16.274;2024-01-30T21:09:54;96039.47;;;15.17;42.10
34031;BME280;20319;28.466;-16.274;2024-01-30T21:12:20;96203.00;;;16.22;42.41
34031;BME280;20319;28.466;-16.274;2024-01-30T21:14:45;96203.03;;;16.12;42.75
34031;BME280;20319;28.466;-16.274;2024-01-30T21:17:12;96187.69;;;15.97;42.87
34031;BME280;20319;28.466;-16.274;2024-01-30T21:19:37;96100.38;;;15.43;43.50
34031;BME280;20319;28.466;-16.274;2024-01-30T21:22:03;96176.97;;;15.82;43.70
34031;BME280;20319;28.466;-16.274;2024-01-30T21:24:29;96198.00;;;15.90;44.13
34031;BME280;20319;28.466;-16.274;2024-01-30T21:26:54;96199.13;;;15.79;44.66
34031;BME280;20319;28.466;-16.274;2024-01-30T21:29:20;96155.97;;;15.49;45.06
34031;BME280;20319;28.466;-16.274;2024-01-30T21:31:46;96106.63;;;15.19;45.28
34031;BME280;20319;28.466;-16.274;2024-01-30T21:34:12;96180.78;;;15.66;45.53
34031;BME280;20319;28.466;-16.274;2024-01-30T21:36:37;96211.00;;;15.78;45.39
34031;BME280;20319;28.466;-16.274;2024-01-30T21:39:03;96198.06;;;15.65;45.06
34031;BME280;20319;28.466;-16.274;2024-01-30T21:41:28;96032.53;;;14.61;44.56
34031;BME280;20319;28.466;-16.274;2024-01-30T21:43:55;96219.38;;;15.77;44.66
34031;BME280;20319;28.466;-16.274;2024-01-30T21:46:27;96212.38;;;15.71;44.14
34031;BME280;20319;28.466;-16.274;2024-01-30T21:48:53;96225.59;;;15.72;44.28
34031;BME280;20319;28.466;-16.274;2024-01-30T21:51:19;96217.50;;;15.72;44.10
34031;BME280;20319;28.466;-16.274;2024-01-30T21:53:45;96101.81;;;15.06;43.43
34031;BME280;20319;28.466;-16.274;2024-01-30T21:56:11;96206.16;;;15.65;43.17
34031;BME280;20319;28.466;-16.274;2024-01-30T21:58:36;96213.69;;;15.68;42.92
34031;BME280;20319;28.466;-16.274;2024-01-30T22:01:02;96098.03;;;14.97;42.88
